Time;durP1;ratioP1;P1;durP2;ratioP2;P2;SDS_P1;SDS_P2;PMS_P1;PMS_P2;Temp;Humidity;BMP_temperature;BMP_pressure;BME280_temperature;BME280_humidity;BME280_pressure;Samples;Min_cycle;Max_cycle;Signal;HPM_P1;HPM_P2
2023/08/17 00:02:13;;;;;;;;;;;;;;;19.37;79.76;101911.91;5064943;28;19954;-59
2023/08/17 00:04:39;;;;;;;;;;;;;;;19.35;79.85;101908.38;5065513;28;19908;-59
2023/08/17 00:07:07;;;;;;;;;;;;;;;19.35;79.73;101912.78;5058927;28;19920;-59
2023/08/17 00:09:32;;;;;;;;;;;;;;;19.35;79.76;101905.75;5059807;28;19908;-59
2023/08/17 00:11:57;;;;;;;;;;;;;;;19.32;80.03;101899.53;5064083;28;19928;-59
2023/08/17 00:14:23;;;;;;;;;;;;;;;19.30;80.33;101896.91;5063849;28;20037;-59
2023/08/17 00:16:51;;;;;;;;;;;;;;;19.25;80.34;101896.88;5059101;28;19984;-59
2023/08/17 00:19:17;;;;;;;;;;;;;;;19.19;80.10;101899.50;5063511;28;19931;-59
2023/08/17 00:21:42;;;;;;;;;;;;;;;19.18;80.53;101895.09;5063431;28;20046;-59
2023/08/17 00:24:07;;;;;;;;;;;;;;;19.11;80.57;101898.59;5063525;28;20272;-59
2023/08/17 00:26:32;;;;;;;;;;;;;;;19.06;80.57;101890.63;5050249;28;19920;-59
2023/08/17 00:28:58;;;;;;;;;;;;;;;19.04;80.81;101886.22;5053810;28;19963;-59
2023/08/17 00:31:23;;;;;;;;;;;;;;;19.03;81.15;101887.06;5059622;28;20225;-59
2023/08/17 00:33:48;;;;;;;;;;;;;;;18.98;80.45;101884.41;5062584;28;19917;-59
2023/08/17 00:36:13;;;;;;;;;;;;;;;18.96;80.97;101886.19;5060939;28;20149;-59
2023/08/17 00:38:38;;;;;;;;;;;;;;;18.96;81.95;101885.28;5058673;28;19972;-59
2023/08/17 00:41:04;;;;;;;;;;;;;;;18.89;81.24;101889.66;5063050;28;20026;-59
2023/08/17 00:43:32;;;;;;;;;;;;;;;18.88;81.26;101880.84;5060496;28;19909;-59
2023/08/17 00:45:57;;;;;;;;;;;;;;;18.90;81.20;101883.47;5061843;28;20177;-59
2023/08/17 00:48:24;;;;;;;;;;;;;;;18.89;80.93;101887.03;5061537;28;19928;-59
2023/08/17 00:50:50;;;;;;;;;;;;;;;18.88;81.01;101888.75;5064000;28;20066;-59
2023/08/17 00:53:16;;;;;;;;;;;;;;;18.90;81.36;101889.66;5060431;28;20202;-59
2023/08/17 00:55:44;;;;;;;;;;;;;;;18.86;81.24;101893.16;5063041;28;20126;-59
2023/08/17 00:58:10;;;;;;;;;;;;;;;18.83;81.04;101895.75;5059289;28;19908;-59
2023/08/17 01:00:35;;;;;;;;;;;;;;;18.80;81.93;101901.03;5063827;28;19915;-59
2023/08/17 01:03:00;;;;;;;;;;;;;;;18.79;81.76;101901.00;5056607;28;19909;-59
2023/08/17 01:05:25;;;;;;;;;;;;;;;18.76;81.64;101901.88;5060140;28;19908;-59
2023/08/17 01:07:51;;;;;;;;;;;;;;;18.73;81.47;101900.09;5056427;28;20103;-58
2023/08/17 01:10:16;;;;;;;;;;;;;;;18.74;81.41;101898.31;5050165;28;19925;-59
2023/08/17 01:12:52;;;;;;;;;;;;;;;18.76;81.69;101907.16;5062822;28;19980;-59
2023/08/17 01:15:21;;;;;;;;;;;;;;;18.75;81.66;101900.09;5054170;28;19917;-59
2023/08/17 01:18:04;;;;;;;;;;;;;;;18.70;81.82;101902.72;5062965;28;19948;-59
2023/08/17 01:20:30;;;;;;;;;;;;;;;18.73;81.63;101894.81;5064475;28;20813;-59
2023/08/17 01:22:58;;;;;;;;;;;;;;;18.73;81.35;101893.94;5062790;28;19908;-59
2023/08/17 01:25:24;;;;;;;;;;;;;;;18.74;81.76;101887.75;5053344;28;19915;-59
2023/08/17 01:27:49;;;;;;;;;;;;;;;18.71;81.68;101890.38;5045922;28;20290;-60
2023/08/17 01:30:15;;;;;;;;;;;;;;;18.69;81.65;101886.84;5048409;28;20792;-59
2023/08/17 01:32:56;;;;;;;;;;;;;;;18.66;81.63;101890.34;5059796;28;20185;-59
2023/08/17 01:35:27;;;;;;;;;;;;;;;18.65;81.77;101885.94;5022952;28;19917;-59
2023/08/17 01:37:55;;;;;;;;;;;;;;;18.63;82.06;101881.53;5026727;28;19917;-59
2023/08/17 01:40:20;;;;;;;;;;;;;;;18.59;81.87;101883.25;5024173;28;19905;-59
2023/08/17 01:42:46;;;;;;;;;;;;;;;18.58;82.00;101882.41;5024249;28;19952;-59
2023/08/17 01:45:11;;;;;;;;;;;;;;;18.57;82.49;101885.91;5041276;28;19905;-59
2023/08/17 01:47:36;;;;;;;;;;;;;;;18.55;82.96;101881.47;5038118;28;20174;-59
2023/08/17 01:50:02;;;;;;;;;;;;;;;18.52;82.48;101881.44;5034109;28;19909;-59
2023/08/17 01:52:30;;;;;;;;;;;;;;;18.52;82.26;101876.19;5038177;28;19908;-59
2023/08/17 01:54:55;;;;;;;;;;;;;;;18.50;82.60;101875.28;5043063;28;20050;-59
2023/08/17 01:57:21;;;;;;;;;;;;;;;18.52;82.65;101881.44;5041622;28;19936;-59
2023/08/17 01:59:47;;;;;;;;;;;;;;;18.50;82.70;101877.94;5040626;28;20058;-59
2023/08/17 02:02:14;;;;;;;;;;;;;;;18.47;83.10;101886.69;5038614;28;20146;-59
2023/08/17 02:04:39;;;;;;;;;;;;;;;18.40;83.26;101883.13;5036479;28;19928;-59
2023/08/17 02:07:04;;;;;;;;;;;;;;;18.39;83.47;101873.47;5042434;28;19910;-59
2023/08/17 02:09:30;;;;;;;;;;;;;;;18.36;83.05;101878.69;5036955;28;19912;-59
2023/08/17 02:11:55;;;;;;;;;;;;;;;18.35;83.39;101878.69;5037483;28;19921;-59
2023/08/17 02:14:20;;;;;;;;;;;;;;;18.35;83.34;101887.50;5042580;28;19921;-59
2023/08/17 02:16:46;;;;;;;;;;;;;;;18.34;83.35;101884.84;5042063;28;19915;-59
2023/08/17 02:19:17;;;;;;;;;;;;;;;18.32;83.21;101881.28;5036847;28;19913;-59
2023/08/17 02:21:45;;;;;;;;;;;;;;;18.33;84.41;101885.72;5040988;28;19909;-59
2023/08/17 02:24:10;;;;;;;;;;;;;;;18.28;83.80;101890.06;5036791;28;19925;-59
2023/08/17 02:26:38;;;;;;;;;;;;;;;18.25;83.92;101883.03;5039447;28;19971;-59
2023/08/17 02:29:03;;;;;;;;;;;;;;;18.17;83.87;101887.34;5028738;28;19951;-59
2023/08/17 02:31:28;;;;;;;;;;;;;;;18.14;83.78;101882.91;5022935;28;19906;-59
2023/08/17 02:33:58;;;;;;;;;;;;;;;18.14;84.21;101880.28;5039709;28;19908;-59
2023/08/17 02:36:23;;;;;;;;;;;;;;;18.10;84.06;101882.88;5062059;28;19921;-59
2023/08/17 02:38:48;;;;;;;;;;;;;;;18.08;84.07;101881.09;5060582;28;19932;-59
2023/08/17 02:41:13;;;;;;;;;;;;;;;18.08;83.97;101875.81;5062741;28;19965;-59
2023/08/17 02:43:38;;;;;;;;;;;;;;;18.06;83.83;101874.94;5056638;28;20127;-59
2023/08/17 02:46:06;;;;;;;;;;;;;;;18.06;84.08;101876.66;5058843;28;19928;-59
2023/08/17 02:48:32;;;;;;;;;;;;;;;18.06;84.10;101874.94;5062292;28;19909;-59
2023/08/17 02:50:57;;;;;;;;;;;;;;;18.07;83.79;101871.44;5061197;28;19913;-61
2023/08/17 02:53:22;;;;;;;;;;;;;;;18.07;84.05;101866.16;5058660;28;19976;-61
2023/08/17 02:55:47;;;;;;;;;;;;;;;18.08;84.19;101870.53;5064809;28;19957;-61
2023/08/17 02:58:13;;;;;;;;;;;;;;;18.08;84.28;101869.69;5063598;28;19931;-61
2023/08/17 03:00:38;;;;;;;;;;;;;;;18.08;84.04;101864.41;5067968;28;19912;-61
2023/08/17 03:03:03;;;;;;;;;;;;;;;18.10;83.98;101864.41;5067970;28;19928;-61
2023/08/17 03:05:31;;;;;;;;;;;;;;;18.12;84.01;101870.56;5066154;28;19953;-61
2023/08/17 03:07:56;;;;;;;;;;;;;;;18.08;84.24;101867.03;5058685;28;19909;-61
2023/08/17 03:10:22;;;;;;;;;;;;;;;18.07;84.47;101860.88;5066952;28;19921;-61
2023/08/17 03:12:47;;;;;;;;;;;;;;;18.05;84.46;101870.53;5069443;28;19911;-61
2023/08/17 03:15:12;;;;;;;;;;;;;;;17.99;84.19;101861.69;5068345;28;19931;-61
2023/08/17 03:17:37;;;;;;;;;;;;;;;17.98;84.17;101868.69;5068611;28;19925;-61
2023/08/17 03:20:05;;;;;;;;;;;;;;;17.97;84.13;101866.06;5069443;28;19904;-60
2023/08/17 03:22:30;;;;;;;;;;;;;;;17.96;84.20;101859.00;5051879;28;19909;-61
2023/08/17 03:24:56;;;;;;;;;;;;;;;17.97;83.97;101861.66;5068462;28;19943;-61
2023/08/17 03:27:21;;;;;;;;;;;;;;;17.96;83.88;101866.91;5064859;28;19909;-61
2023/08/17 03:29:46;;;;;;;;;;;;;;;17.96;84.13;101861.63;5063520;28;19916;-61
2023/08/17 03:32:12;;;;;;;;;;;;;;;17.94;83.95;101856.34;5066836;28;19925;-61
2023/08/17 03:34:37;;;;;;;;;;;;;;;17.92;84.05;101857.22;5067713;28;19971;-61
2023/08/17 03:37:05;;;;;;;;;;;;;;;17.92;84.18;101859.88;5055245;28;20131;-61
2023/08/17 03:39:30;;;;;;;;;;;;;;;17.91;83.97;101864.22;5055258;28;19912;-61
2023/08/17 03:41:56;;;;;;;;;;;;;;;17.88;83.80;101857.13;5068190;28;19958;-61
2023/08/17 03:44:21;;;;;;;;;;;;;;;17.88;84.21;101857.13;5062695;28;19978;-61
2023/08/17 03:46:46;;;;;;;;;;;;;;;17.86;83.85;101852.75;5065331;28;19942;-61
2023/08/17 03:49:11;;;;;;;;;;;;;;;17.80;84.61;101853.56;5063520;28;20166;-61
2023/08/17 03:51:36;;;;;;;;;;;;;;;17.74;84.39;101864.03;5057018;28;19920;-60
2023/08/17 03:54:02;;;;;;;;;;;;;;;17.70;84.41;101863.13;5068371;28;19908;-61
2023/08/17 03:56:27;;;;;;;;;;;;;;;17.69;84.80;101860.47;5068594;28;19926;-61
2023/08/17 03:58:52;;;;;;;;;;;;;;;17.68;84.68;101861.34;5064687;28;20155;-61
2023/08/17 04:01:18;;;;;;;;;;;;;;;17.64;84.78;101862.16;5067863;28;19916;-61
2023/08/17 04:03:43;;;;;;;;;;;;;;;17.59;85.06;101864.75;5059861;28;19908;-61
2023/08/17 04:06:10;;;;;;;;;;;;;;;17.58;85.69;101872.66;5038165;28;19925;-61
2023/08/17 04:08:35;;;;;;;;;;;;;;;17.53;85.34;101876.13;5064480;28;19916;-61
2023/08/17 04:11:01;;;;;;;;;;;;;;;17.48;85.76;101876.91;5064746;28;19912;-61
2023/08/17 04:13:27;;;;;;;;;;;;;;;17.43;85.93;101884.78;5062832;28;20143;-61
2023/08/17 04:15:52;;;;;;;;;;;;;;;17.38;86.25;101886.50;5055367;28;19909;-61
2023/08/17 04:18:17;;;;;;;;;;;;;;;17.32;86.12;101881.13;5062734;28;20015;-61
2023/08/17 04:20:46;;;;;;;;;;;;;;;17.30;85.76;101888.13;5063770;28;19929;-61
2023/08/17 04:23:11;;;;;;;;;;;;;;;17.30;86.20;101888.13;5063560;28;19915;-60
2023/08/17 04:25:36;;;;;;;;;;;;;;;17.29;86.33;101886.34;5046924;28;19909;-61
2023/08/17 04:28:01;;;;;;;;;;;;;;;17.29;86.68;101894.25;5050543;28;19908;-61
2023/08/17 04:30:27;;;;;;;;;;;;;;;17.30;86.69;101888.13;5064478;28;20159;-61
2023/08/17 04:32:52;;;;;;;;;;;;;;;17.31;86.81;101900.47;5058557;28;19925;-61
2023/08/17 04:35:20;;;;;;;;;;;;;;;17.30;86.21;101896.91;5063734;28;19916;-61
2023/08/17 04:37:47;;;;;;;;;;;;;;;17.30;86.45;101896.91;5061588;28;19915;-61
2023/08/17 04:40:12;;;;;;;;;;;;;;;17.29;86.87;101895.16;5064191;28;19927;-61
2023/08/17 04:42:40;;;;;;;;;;;;;;;17.28;87.14;101895.13;5063216;28;19908;-61
2023/08/17 04:45:05;;;;;;;;;;;;;;;17.25;87.07;101900.34;5044588;28;19916;-61
2023/08/17 04:47:31;;;;;;;;;;;;;;;17.21;86.94;101894.19;5063866;28;19912;-61
2023/08/17 04:49:56;;;;;;;;;;;;;;;17.20;87.41;101890.63;5052266;28;19988;-61
2023/08/17 04:52:21;;;;;;;;;;;;;;;17.17;86.95;101895.00;5063880;28;20085;-61
2023/08/17 04:54:49;;;;;;;;;;;;;;;17.16;87.22;101890.59;5029908;28;19923;-61
2023/08/17 04:57:15;;;;;;;;;;;;;;;17.16;87.35;101888.84;5059729;28;19908;-61
2023/08/17 04:59:40;;;;;;;;;;;;;;;17.20;87.56;101893.28;5061382;28;20062;-61
2023/08/17 05:02:05;;;;;;;;;;;;;;;17.18;87.60;101883.59;5058878;28;19909;-61
2023/08/17 05:04:31;;;;;;;;;;;;;;;17.18;87.18;101886.25;5063346;28;19913;-61
2023/08/17 05:06:56;;;;;;;;;;;;;;;17.21;87.58;101886.28;5052003;28;19954;-60
2023/08/17 05:09:21;;;;;;;;;;;;;;;17.18;87.77;101896.78;5059520;28;19909;-61
2023/08/17 05:11:46;;;;;;;;;;;;;;;17.18;87.16;101891.50;5062773;28;19928;-61
2023/08/17 05:14:12;;;;;;;;;;;;;;;17.19;87.24;101891.53;5063605;28;19959;-61
2023/08/17 05:16:37;;;;;;;;;;;;;;;17.19;86.99;101888.88;5045432;28;20051;-61
2023/08/17 05:19:02;;;;;;;;;;;;;;;17.17;87.61;101887.09;5051905;28;19916;-61
2023/08/17 05:21:27;;;;;;;;;;;;;;;17.17;87.21;101889.72;5046095;28;19944;-61
2023/08/17 05:23:53;;;;;;;;;;;;;;;17.21;88.11;101884.50;5044745;28;19960;-61
2023/08/17 05:26:19;;;;;;;;;;;;;;;17.16;87.60;101886.22;5046494;28;20162;-61
2023/08/17 05:28:44;;;;;;;;;;;;;;;17.13;87.58;101888.81;5062161;28;19916;-61
2023/08/17 05:31:10;;;;;;;;;;;;;;;17.16;87.62;101885.31;5063002;28;19943;-61
2023/08/17 05:33:35;;;;;;;;;;;;;;;17.17;87.55;101890.59;5061410;28;19909;-61
2023/08/17 05:36:01;;;;;;;;;;;;;;;17.20;87.49;101881.88;5063759;28;19934;-61
2023/08/17 05:38:26;;;;;;;;;;;;;;;17.22;87.63;101885.41;5062724;28;19908;-61
2023/08/17 05:40:58;;;;;;;;;;;;;;;17.22;87.77;101880.16;5032318;28;19947;-61
2023/08/17 05:43:24;;;;;;;;;;;;;;;17.23;87.70;101888.94;5058554;28;19916;-61
2023/08/17 05:45:49;;;;;;;;;;;;;;;17.25;87.16;101887.19;5062771;28;19912;-61
2023/08/17 05:48:14;;;;;;;;;;;;;;;17.28;87.81;101889.84;5057343;28;19909;-61
2023/08/17 05:50:43;;;;;;;;;;;;;;;17.30;87.72;101896.03;5060172;28;19974;-61
2023/08/17 05:53:08;;;;;;;;;;;;;;;17.31;87.66;101893.44;5048453;28;19912;-61
2023/08/17 05:55:33;;;;;;;;;;;;;;;17.38;87.88;101894.41;5059269;28;19915;-61
2023/08/17 05:58:01;;;;;;;;;;;;;;;17.36;87.68;101893.47;5059858;28;19916;-61
2023/08/17 06:00:27;;;;;;;;;;;;;;;17.37;87.94;101895.25;5042883;28;19936;-61
2023/08/17 06:02:52;;;;;;;;;;;;;;;17.44;88.51;101898.81;5060649;28;19908;-61
2023/08/17 06:05:17;;;;;;;;;;;;;;;17.48;88.31;101901.53;5061321;28;19975;-61
2023/08/17 06:07:43;;;;;;;;;;;;;;;17.47;88.27;101897.13;5060437;28;19909;-61
2023/08/17 06:10:09;;;;;;;;;;;;;;;17.47;88.58;101904.16;5052083;28;19909;-61
2023/08/17 06:12:37;;;;;;;;;;;;;;;17.45;88.54;101904.16;5056927;28;19909;-61
2023/08/17 06:15:03;;;;;;;;;;;;;;;17.48;88.38;101909.44;5052524;28;20174;-61
2023/08/17 06:17:28;;;;;;;;;;;;;;;17.49;88.21;101905.94;5061733;28;19908;-61
2023/08/17 06:19:53;;;;;;;;;;;;;;;17.53;88.32;101915.63;5062704;28;19947;-61
2023/08/17 06:22:18;;;;;;;;;;;;;;;17.54;88.15;101914.78;5061591;28;19954;-61
2023/08/17 06:24:44;;;;;;;;;;;;;;;17.60;88.33;101907.78;5055377;28;19951;-61
2023/08/17 06:27:09;;;;;;;;;;;;;;;17.63;88.13;101908.72;5054914;28;19917;-61
2023/08/17 06:29:37;;;;;;;;;;;;;;;17.63;88.12;101902.59;5056445;28;19992;-61
2023/08/17 06:32:02;;;;;;;;;;;;;;;17.69;88.03;101913.19;5053708;28;19980;-61
2023/08/17 06:34:27;;;;;;;;;;;;;;;17.71;88.13;101911.44;5057946;28;19909;-61
2023/08/17 06:36:59;;;;;;;;;;;;;;;17.75;88.60;101910.63;5062340;28;19909;-61
2023/08/17 06:39:25;;;;;;;;;;;;;;;17.79;88.31;101903.66;5056202;28;19936;-61
2023/08/17 06:41:50;;;;;;;;;;;;;;;17.83;88.76;101906.31;5049784;28;19989;-61
2023/08/17 06:44:15;;;;;;;;;;;;;;;17.83;88.39;101916.88;5051064;28;20109;-61
2023/08/17 06:46:40;;;;;;;;;;;;;;;17.84;88.23;101913.38;5059678;28;19908;-61
2023/08/17 06:49:06;;;;;;;;;;;;;;;17.85;88.45;101914.25;5060613;28;19921;-61
2023/08/17 06:51:31;;;;;;;;;;;;;;;17.86;88.67;101911.63;5056421;28;19909;-61
2023/08/17 06:53:56;;;;;;;;;;;;;;;17.93;89.27;101911.72;5059542;28;20143;-61
2023/08/17 06:56:22;;;;;;;;;;;;;;;17.95;88.71;101907.34;5050786;28;19916;-61
2023/08/17 06:58:47;;;;;;;;;;;;;;;18.00;88.65;101916.19;5056547;28;20158;-61
2023/08/17 07:01:14;;;;;;;;;;;;;;;18.03;88.50;101913.56;5051874;28;19905;-61
2023/08/17 07:03:39;;;;;;;;;;;;;;;18.05;88.88;101919.75;5045704;28;19951;-61
2023/08/17 07:06:04;;;;;;;;;;;;;;;18.06;88.23;101918.88;5058552;28;19912;-61
2023/08/17 07:08:30;;;;;;;;;;;;;;;18.05;88.56;101914.50;5059546;28;19943;-61
2023/08/17 07:10:55;;;;;;;;;;;;;;;18.12;88.57;101921.59;5054008;28;19909;-61
2023/08/17 07:13:20;;;;;;;;;;;;;;;18.18;88.36;101916.38;5054482;28;19905;-61
2023/08/17 07:15:46;;;;;;;;;;;;;;;18.23;88.51;101912.03;5047207;28;20043;-61
2023/08/17 07:18:11;;;;;;;;;;;;;;;18.28;88.15;101913.78;5059305;28;19920;-61
2023/08/17 07:20:36;;;;;;;;;;;;;;;18.35;88.66;101910.34;5055687;28;19913;-61
2023/08/17 07:23:01;;;;;;;;;;;;;;;18.38;88.22;101915.69;5039058;28;20142;-61
2023/08/17 07:25:26;;;;;;;;;;;;;;;18.40;88.47;101914.78;5055919;28;20191;-61
2023/08/17 07:27:52;;;;;;;;;;;;;;;18.40;88.05;101911.28;5048110;28;19916;-61
2023/08/17 07:30:17;;;;;;;;;;;;;;;18.40;88.42;101912.16;5053613;28;19916;-61
2023/08/17 07:32:42;;;;;;;;;;;;;;;18.42;88.28;101914.81;5036227;28;19909;-61
2023/08/17 07:35:08;;;;;;;;;;;;;;;18.47;87.99;101913.09;5036864;28;19918;-61
2023/08/17 07:37:33;;;;;;;;;;;;;;;18.54;88.30;101916.69;5062026;28;19967;-61
2023/08/17 07:39:59;;;;;;;;;;;;;;;18.60;88.43;101919.34;5062887;28;20143;-61
2023/08/17 07:42:24;;;;;;;;;;;;;;;18.69;88.11;101916.78;5054701;28;19909;-61
2023/08/17 07:44:49;;;;;;;;;;;;;;;18.79;88.23;101915.09;5060985;28;20178;-62
2023/08/17 07:47:14;;;;;;;;;;;;;;;18.87;88.42;101916.06;5058196;28;19908;-61
2023/08/17 07:49:40;;;;;;;;;;;;;;;18.93;87.64;101916.09;5064480;28;19960;-62
2023/08/17 07:52:05;;;;;;;;;;;;;;;18.87;86.16;101916.06;5063224;28;20161;-61
2023/08/17 07:54:30;;;;;;;;;;;;;;;18.79;86.76;101907.16;5061895;28;19915;-61
2023/08/17 07:56:55;;;;;;;;;;;;;;;18.82;87.74;101920.38;5062671;28;19913;-61
2023/08/17 07:59:20;;;;;;;;;;;;;;;18.89;87.76;101924.88;5064921;28;20000;-61
2023/08/17 08:01:46;;;;;;;;;;;;;;;18.96;87.27;101930.19;5060698;28;19916;-61
2023/08/17 08:04:11;;;;;;;;;;;;;;;19.00;87.36;101919.66;5046941;28;19931;-61
2023/08/17 08:06:36;;;;;;;;;;;;;;;19.06;87.01;101927.63;5052425;28;20062;-61
2023/08/17 08:09:02;;;;;;;;;;;;;;;19.10;86.95;101921.47;5061384;28;19927;-61
2023/08/17 08:11:27;;;;;;;;;;;;;;;19.14;86.87;101927.66;5060332;28;19908;-61
2023/08/17 08:13:52;;;;;;;;;;;;;;;19.15;86.88;101924.16;5059927;28;19909;-61
2023/08/17 08:16:18;;;;;;;;;;;;;;;19.17;86.84;101922.38;5061730;28;19908;-61
2023/08/17 08:18:43;;;;;;;;;;;;;;;19.23;86.86;101925.06;5061774;28;19944;-61
2023/08/17 08:21:08;;;;;;;;;;;;;;;19.31;86.63;101922.47;5050727;28;19944;-61
2023/08/17 08:23:33;;;;;;;;;;;;;;;19.32;86.91;101920.69;5045305;28;19996;-61
2023/08/17 08:25:58;;;;;;;;;;;;;;;19.33;86.20;101925.09;5044013;28;20159;-61
2023/08/17 08:28:24;;;;;;;;;;;;;;;19.32;86.46;101921.59;5060720;28;19909;-61
2023/08/17 08:30:50;;;;;;;;;;;;;;;19.32;86.26;101923.34;5061859;28;19983;-61
2023/08/17 08:33:15;;;;;;;;;;;;;;;19.33;86.71;101931.28;5048325;28;20086;-61
2023/08/17 08:35:40;;;;;;;;;;;;;;;19.33;86.60;101930.41;5048895;28;19916;-61
2023/08/17 08:38:08;;;;;;;;;;;;;;;19.32;86.47;101928.63;5045620;28;19972;-61
2023/08/17 08:40:37;;;;;;;;;;;;;;;19.33;86.59;101925.97;5051628;28;19997;-61
2023/08/17 08:43:02;;;;;;;;;;;;;;;19.31;86.40;101925.09;5057412;28;19908;-61
2023/08/17 08:45:30;;;;;;;;;;;;;;;19.29;86.44;101930.38;5046071;28;19983;-61
2023/08/17 08:47:57;;;;;;;;;;;;;;;19.29;86.01;101935.66;5045061;28;19905;-61
2023/08/17 08:50:25;;;;;;;;;;;;;;;19.26;86.21;101925.09;5044285;28;19951;-61
2023/08/17 08:52:58;;;;;;;;;;;;;;;19.22;86.57;101923.31;5056752;28;19915;-61
2023/08/17 08:55:33;;;;;;;;;;;;;;;19.19;86.31;101917.09;5064906;28;19947;-61
2023/08/17 08:57:59;;;;;;;;;;;;;;;19.18;86.67;101916.22;5064773;28;19939;-61
2023/08/17 09:00:24;;;;;;;;;;;;;;;19.15;86.42;101915.31;5064744;28;19928;-61
2023/08/17 09:02:51;;;;;;;;;;;;;;;19.08;86.43;101910.00;5062917;28;19979;-61
2023/08/17 09:05:16;;;;;;;;;;;;;;;19.09;87.00;101905.63;5056987;28;19948;-61
2023/08/17 09:07:42;;;;;;;;;;;;;;;19.08;86.62;101903.84;5044656;28;20090;-61
2023/08/17 09:10:08;;;;;;;;;;;;;;;19.09;86.47;101910.91;5044776;28;20112;-61
2023/08/17 09:12:33;;;;;;;;;;;;;;;19.08;86.07;101906.50;5052277;28;20019;-61
2023/08/17 09:15:02;;;;;;;;;;;;;;;19.04;86.37;101902.94;5047004;28;20122;-61
2023/08/17 09:17:27;;;;;;;;;;;;;;;19.05;86.51;101903.84;5049704;28;20059;-61
2023/08/17 09:19:53;;;;;;;;;;;;;;;19.07;86.36;101902.06;5059393;28;19990;-61
2023/08/17 09:22:24;;;;;;;;;;;;;;;19.08;86.71;101904.72;5063159;28;19947;-61
2023/08/17 09:24:50;;;;;;;;;;;;;;;19.10;86.82;101913.56;5047816;28;19913;-61
2023/08/17 09:27:15;;;;;;;;;;;;;;;19.09;86.67;101913.56;5048337;28;19943;-61
2023/08/17 09:29:43;;;;;;;;;;;;;;;19.09;86.84;101916.19;5063692;28;19971;-61
2023/08/17 09:32:10;;;;;;;;;;;;;;;19.05;86.99;101911.75;5055122;28;20055;-61
2023/08/17 09:34:40;;;;;;;;;;;;;;;19.02;87.13;101904.69;5043913;28;19909;-61
2023/08/17 09:37:06;;;;;;;;;;;;;;;19.01;87.38;101905.56;5047946;28;19916;-61
2023/08/17 09:39:31;;;;;;;;;;;;;;;19.04;86.93;101907.34;5062240;28;19908;-61
2023/08/17 09:41:56;;;;;;;;;;;;;;;19.11;87.31;101906.50;5047036;28;19908;-61
2023/08/17 09:44:22;;;;;;;;;;;;;;;19.20;87.12;101903.03;5043908;28;19932;-61
2023/08/17 09:46:47;;;;;;;;;;;;;;;19.26;86.79;101903.03;5044067;28;19909;-61
2023/08/17 09:49:12;;;;;;;;;;;;;;;19.31;86.79;101903.09;5050663;28;20193;-61
2023/08/17 09:51:44;;;;;;;;;;;;;;;19.34;86.52;101901.31;5060052;28;19939;-61
2023/08/17 09:54:23;;;;;;;;;;;;;;;19.40;86.31;101903.13;5061485;28;19915;-61
2023/08/17 09:56:50;;;;;;;;;;;;;;;19.39;86.59;101894.31;5043781;28;20036;-61
2023/08/17 09:59:15;;;;;;;;;;;;;;;19.38;86.63;101895.19;5043793;28;19928;-61
2023/08/17 10:01:41;;;;;;;;;;;;;;;19.39;86.39;101898.69;5044335;28;20143;-61
2023/08/17 10:04:06;;;;;;;;;;;;;;;19.39;86.29;101891.69;5045525;28;19920;-61
2023/08/17 10:06:32;;;;;;;;;;;;;;;19.35;86.83;101894.28;5047969;28;19955;-61
2023/08/17 10:08:58;;;;;;;;;;;;;;;19.35;86.44;101896.91;5043745;28;19905;-61
2023/08/17 10:11:24;;;;;;;;;;;;;;;19.31;86.07;101889.88;5046357;28;19980;-61
2023/08/17 10:13:49;;;;;;;;;;;;;;;19.29;86.36;101882.81;5063612;28;19908;-61
2023/08/17 10:16:21;;;;;;;;;;;;;;;19.22;86.34;101882.75;5043782;28;19905;-61
2023/08/17 10:18:49;;;;;;;;;;;;;;;19.23;86.58;101877.50;5043507;28;19909;-61
2023/08/17 10:21:46;;;;;;;;;;;;;;;19.23;86.59;101887.19;5045330;28;19905;-61
2023/08/17 10:24:12;;;;;;;;;;;;;;;19.22;86.96;101872.19;5029558;28;19913;-61
2023/08/17 10:26:38;;;;;;;;;;;;;;;19.24;86.92;101873.09;5058006;28;19968;-61
2023/08/17 10:29:07;;;;;;;;;;;;;;;19.23;86.80;101871.31;5062388;28;20197;-61
2023/08/17 10:31:37;;;;;;;;;;;;;;;19.26;86.92;101866.94;5061443;28;19932;-61
2023/08/17 10:34:03;;;;;;;;;;;;;;;19.32;87.09;101870.47;5063035;28;19912;-61
2023/08/17 10:36:30;;;;;;;;;;;;;;;19.38;87.22;101876.69;5062650;28;19925;-61
2023/08/17 10:39:14;;;;;;;;;;;;;;;19.48;86.94;101877.59;5057944;28;19909;-61
2023/08/17 10:41:46;;;;;;;;;;;;;;;19.49;86.54;101868.78;5059361;28;19909;-61
2023/08/17 10:44:11;;;;;;;;;;;;;;;19.49;86.52;101878.47;5063036;28;19909;-61
2023/08/17 10:46:37;;;;;;;;;;;;;;;19.44;86.35;101887.28;5063272;28;19905;-61
2023/08/17 10:49:05;;;;;;;;;;;;;;;19.45;86.91;101882.84;5050111;28;19968;-61
2023/08/17 10:51:31;;;;;;;;;;;;;;;19.51;86.81;101876.72;5045310;28;19932;-61
2023/08/17 10:53:58;;;;;;;;;;;;;;;19.56;87.40;101877.63;5043099;28;19909;-61
2023/08/17 10:56:26;;;;;;;;;;;;;;;19.58;87.10;101867.91;5042879;28;20023;-61
2023/08/17 10:58:51;;;;;;;;;;;;;;;19.56;87.26;101865.28;5043236;28;19909;-61
2023/08/17 11:01:31;;;;;;;;;;;;;;;19.60;86.75;101871.47;5044521;28;19951;-61
2023/08/17 11:04:14;;;;;;;;;;;;;;;19.58;86.97;101871.47;5057477;28;19909;-61
2023/08/17 11:06:39;;;;;;;;;;;;;;;19.63;87.21;101874.13;5062150;28;19931;-61
2023/08/17 11:09:08;;;;;;;;;;;;;;;19.66;86.96;101867.97;5048254;28;19909;-61
2023/08/17 11:11:34;;;;;;;;;;;;;;;19.65;86.95;101874.97;5046415;28;20121;-61
2023/08/17 11:13:59;;;;;;;;;;;;;;;19.66;87.55;101875.88;5052630;28;20202;-61
2023/08/17 11:16:24;;;;;;;;;;;;;;;19.67;88.18;101881.19;5056237;28;20059;-61
2023/08/17 11:18:50;;;;;;;;;;;;;;;19.66;87.51;101881.19;5047036;28;19921;-61
2023/08/17 11:21:24;;;;;;;;;;;;;;;19.67;87.56;101877.63;5048800;28;20229;-61
2023/08/17 11:23:50;;;;;;;;;;;;;;;19.69;87.54;101875.88;5063077;28;19917;-61
2023/08/17 11:26:17;;;;;;;;;;;;;;;19.68;87.84;101884.69;5047203;28;19943;-61
2023/08/17 11:28:44;;;;;;;;;;;;;;;19.69;87.53;101883.81;5049197;28;19912;-61
2023/08/17 11:31:10;;;;;;;;;;;;;;;19.70;87.93;101882.94;5048203;28;19921;-61
2023/08/17 11:33:37;;;;;;;;;;;;;;;19.73;87.83;101883.81;5053988;28;19917;-61
2023/08/17 11:36:03;;;;;;;;;;;;;;;19.79;87.75;101889.16;5046222;28;19909;-61
2023/08/17 11:38:36;;;;;;;;;;;;;;;19.81;87.29;101886.50;5054844;28;20101;-61
2023/08/17 11:41:02;;;;;;;;;;;;;;;19.75;87.54;101881.19;5047989;28;19932;-61
2023/08/17 11:43:28;;;;;;;;;;;;;;;19.76;87.27;101875.91;5056575;28;19908;-61
2023/08/17 11:45:54;;;;;;;;;;;;;;;19.81;87.39;101881.22;5031053;28;19973;-62
2023/08/17 11:48:22;;;;;;;;;;;;;;;19.84;87.39;101881.22;5046742;28;20327;-61
2023/08/17 11:50:48;;;;;;;;;;;;;;;19.82;87.02;101885.63;5046172;28;19916;-61
2023/08/17 11:53:14;;;;;;;;;;;;;;;19.90;87.59;101885.66;5062454;28;20170;-61
2023/08/17 11:55:39;;;;;;;;;;;;;;;19.86;87.24;101889.19;5066164;28;19968;-61
2023/08/17 11:58:04;;;;;;;;;;;;;;;19.89;87.72;101883.91;5066308;28;20062;-61
2023/08/17 12:00:34;;;;;;;;;;;;;;;19.93;87.24;101883.91;5050529;28;19984;-61
2023/08/17 12:03:00;;;;;;;;;;;;;;;19.93;86.63;101880.38;5051992;28;19928;-61
2023/08/17 12:05:26;;;;;;;;;;;;;;;19.89;86.91;101874.19;5054152;28;19955;-61
2023/08/17 12:07:55;;;;;;;;;;;;;;;19.93;87.35;101878.63;5048687;28;19951;-61
2023/08/17 12:10:22;;;;;;;;;;;;;;;19.96;87.20;101883.91;5059062;28;20035;-61
2023/08/17 12:12:47;;;;;;;;;;;;;;;19.98;87.29;101873.31;5052577;28;19967;-61
2023/08/17 12:15:13;;;;;;;;;;;;;;;19.98;87.41;101870.69;5065734;28;19911;-61
2023/08/17 12:17:48;;;;;;;;;;;;;;;20.05;87.64;101868.94;5064474;28;20137;-60
2023/08/17 12:20:17;;;;;;;;;;;;;;;20.11;86.88;101874.22;5045890;28;19916;-60
2023/08/17 12:22:42;;;;;;;;;;;;;;;20.07;86.80;101873.31;5047072;28;20139;-60
2023/08/17 12:25:08;;;;;;;;;;;;;;;20.03;85.97;101875.97;5044365;28;19980;-60
2023/08/17 12:27:34;;;;;;;;;;;;;;;19.94;86.60;101875.09;5045621;28;20139;-60
2023/08/17 12:29:59;;;;;;;;;;;;;;;19.90;86.57;101875.97;5064884;28;19908;-60
2023/08/17 12:32:24;;;;;;;;;;;;;;;19.96;87.05;101873.31;5047534;28;19947;-60